sensor_id;sensor_type;location;lat;lon;timestamp;P1;durP1;ratioP1;P2;durP2;ratioP2
4821;SDS011;2425;47.794;13.068;2023-07-31T00:02:25;0.80;;;0.80;;
4821;SDS011;2425;47.794;13.068;2023-07-31T00:04:51;0.60;;;0.60;;
4821;SDS011;2425;47.794;13.068;2023-07-31T00:07:18;0.60;;;0.60;;
4821;SDS011;2425;47.794;13.068;2023-07-31T00:09:46;0.60;;;0.60;;
4821;SDS011;2425;47.794;13.068;2023-07-31T00:12:13;0.80;;;0.80;;
4821;SDS011;2425;47.794;13.068;2023-07-31T00:14:40;0.60;;;0.60;;
4821;SDS011;2425;47.794;13.068;2023-07-31T00:17:06;0.63;;;0.63;;
4821;SDS011;2425;47.794;13.068;2023-07-31T00:19:33;0.80;;;0.80;;
4821;SDS011;2425;47.794;13.068;2023-07-31T00:22:00;0.70;;;0.70;;
4821;SDS011;2425;47.794;13.068;2023-07-31T00:24:26;0.60;;;0.60;;
4821;SDS011;2425;47.794;13.068;2023-07-31T00:26:54;0.63;;;0.63;;
4821;SDS011;2425;47.794;13.068;2023-07-31T00:29:21;0.53;;;0.53;;
4821;SDS011;2425;47.794;13.068;2023-07-31T00:31:48;1.27;;;0.93;;
4821;SDS011;2425;47.794;13.068;2023-07-31T00:34:15;0.60;;;0.60;;
4821;SDS011;2425;47.794;13.068;2023-07-31T00:36:41;0.60;;;0.60;;
4821;SDS011;2425;47.794;13.068;2023-07-31T00:39:08;0.53;;;0.53;;
4821;SDS011;2425;47.794;13.068;2023-07-31T00:41:35;0.63;;;0.63;;
4821;SDS011;2425;47.794;13.068;2023-07-31T00:44:03;0.50;;;0.50;;
4821;SDS011;2425;47.794;13.068;2023-07-31T00:46:30;0.60;;;0.60;;
4821;SDS011;2425;47.794;13.068;2023-07-31T00:48:57;0.70;;;0.70;;
4821;SDS011;2425;47.794;13.068;2023-07-31T00:51:23;0.67;;;0.67;;
4821;SDS011;2425;47.794;13.068;2023-07-31T00:53:49;0.80;;;0.80;;
4821;SDS011;2425;47.794;13.068;2023-07-31T00:56:16;0.60;;;0.60;;
4821;SDS011;2425;47.794;13.068;2023-07-31T00:58:43;0.50;;;0.50;;
4821;SDS011;2425;47.794;13.068;2023-07-31T01:01:11;0.60;;;0.60;;
4821;SDS011;2425;47.794;13.068;2023-07-31T01:03:37;0.60;;;0.60;;
4821;SDS011;2425;47.794;13.068;2023-07-31T01:06:14;0.67;;;0.67;;
4821;SDS011;2425;47.794;13.068;2023-07-31T01:08:42;0.70;;;0.70;;
4821;SDS011;2425;47.794;13.068;2023-07-31T01:11:19;0.50;;;0.50;;
4821;SDS011;2425;47.794;13.068;2023-07-31T01:13:48;0.60;;;0.60;;
4821;SDS011;2425;47.794;13.068;2023-07-31T01:16:16;0.50;;;0.50;;
4821;SDS011;2425;47.794;13.068;2023-07-31T01:18:43;0.60;;;0.60;;
4821;SDS011;2425;47.794;13.068;2023-07-31T01:21:14;0.50;;;0.50;;
4821;SDS011;2425;47.794;13.068;2023-07-31T01:23:54;0.60;;;0.60;;
4821;SDS011;2425;47.794;13.068;2023-07-31T01:26:49;0.53;;;0.53;;
4821;SDS011;2425;47.794;13.068;2023-07-31T01:29:20;0.60;;;0.60;;
4821;SDS011;2425;47.794;13.068;2023-07-31T01:31:51;0.60;;;0.60;;
4821;SDS011;2425;47.794;13.068;2023-07-31T01:34:19;0.40;;;0.40;;
4821;SDS011;2425;47.794;13.068;2023-07-31T01:36:47;0.53;;;0.53;;
4821;SDS011;2425;47.794;13.068;2023-07-31T01:39:14;0.63;;;0.63;;
4821;SDS011;2425;47.794;13.068;2023-07-31T01:41:41;0.60;;;0.60;;
4821;SDS011;2425;47.794;13.068;2023-07-31T01:44:09;0.50;;;0.50;;
4821;SDS011;2425;47.794;13.068;2023-07-31T01:46:36;0.50;;;0.50;;
4821;SDS011;2425;47.794;13.068;2023-07-31T01:49:02;0.60;;;0.60;;
4821;SDS011;2425;47.794;13.068;2023-07-31T01:51:30;0.57;;;0.57;;
4821;SDS011;2425;47.794;13.068;2023-07-31T01:53:59;0.60;;;0.60;;
4821;SDS011;2425;47.794;13.068;2023-07-31T01:56:25;0.60;;;0.60;;
4821;SDS011;2425;47.794;13.068;2023-07-31T01:58:52;0.50;;;0.50;;
4821;SDS011;2425;47.794;13.068;2023-07-31T02:01:20;0.63;;;0.63;;
4821;SDS011;2425;47.794;13.068;2023-07-31T02:03:47;0.57;;;0.57;;
4821;SDS011;2425;47.794;13.068;2023-07-31T02:06:14;0.50;;;0.50;;
4821;SDS011;2425;47.794;13.068;2023-07-31T02:08:40;0.50;;;0.50;;
4821;SDS011;2425;47.794;13.068;2023-07-31T02:11:07;0.70;;;0.70;;
4821;SDS011;2425;47.794;13.068;2023-07-31T02:13:34;0.63;;;0.63;;
4821;SDS011;2425;47.794;13.068;2023-07-31T02:16:00;0.50;;;0.40;;
4821;SDS011;2425;47.794;13.068;2023-07-31T02:18:28;0.73;;;0.73;;
4821;SDS011;2425;47.794;13.068;2023-07-31T02:20:55;0.50;;;0.50;;
4821;SDS011;2425;47.794;13.068;2023-07-31T02:23:22;0.40;;;0.40;;
4821;SDS011;2425;47.794;13.068;2023-07-31T02:25:49;0.70;;;0.70;;
4821;SDS011;2425;47.794;13.068;2023-07-31T02:28:15;0.60;;;0.60;;
4821;SDS011;2425;47.794;13.068;2023-07-31T02:30:43;0.60;;;0.60;;
4821;SDS011;2425;47.794;13.068;2023-07-31T02:33:10;0.67;;;0.67;;
4821;SDS011;2425;47.794;13.068;2023-07-31T02:35:38;0.50;;;0.50;;
4821;SDS011;2425;47.794;13.068;2023-07-31T02:38:05;0.57;;;0.57;;
4821;SDS011;2425;47.794;13.068;2023-07-31T02:40:32;0.40;;;0.40;;
4821;SDS011;2425;47.794;13.068;2023-07-31T02:42:58;0.60;;;0.60;;
4821;SDS011;2425;47.794;13.068;2023-07-31T02:45:25;0.93;;;0.60;;
4821;SDS011;2425;47.794;13.068;2023-07-31T02:47:52;0.70;;;0.70;;
4821;SDS011;2425;47.794;13.068;2023-07-31T02:50:18;0.60;;;0.60;;
4821;SDS011;2425;47.794;13.068;2023-07-31T02:52:47;0.53;;;0.53;;
4821;SDS011;2425;47.794;13.068;2023-07-31T02:55:13;0.47;;;0.47;;
4821;SDS011;2425;47.794;13.068;2023-07-31T02:57:40;0.50;;;0.50;;
4821;SDS011;2425;47.794;13.068;2023-07-31T03:00:07;0.50;;;0.50;;
4821;SDS011;2425;47.794;13.068;2023-07-31T03:02:34;0.43;;;0.43;;
4821;SDS011;2425;47.794;13.068;2023-07-31T03:05:01;0.67;;;0.67;;
4821;SDS011;2425;47.794;13.068;2023-07-31T03:07:28;0.50;;;0.50;;
4821;SDS011;2425;47.794;13.068;2023-07-31T03:09:56;0.50;;;0.50;;
4821;SDS011;2425;47.794;13.068;2023-07-31T03:12:23;0.40;;;0.40;;
4821;SDS011;2425;47.794;13.068;2023-07-31T03:14:50;0.47;;;0.47;;
4821;SDS011;2425;47.794;13.068;2023-07-31T03:17:16;0.60;;;0.60;;
4821;SDS011;2425;47.794;13.068;2023-07-31T03:19:43;0.47;;;0.47;;
4821;SDS011;2425;47.794;13.068;2023-07-31T03:22:10;0.50;;;0.50;;
4821;SDS011;2425;47.794;13.068;2023-07-31T03:24:36;0.60;;;0.60;;
4821;SDS011;2425;47.794;13.068;2023-07-31T03:27:05;0.60;;;0.60;;
4821;SDS011;2425;47.794;13.068;2023-07-31T03:29:32;0.50;;;0.50;;
4821;SDS011;2425;47.794;13.068;2023-07-31T03:31:59;0.50;;;0.50;;
4821;SDS011;2425;47.794;13.068;2023-07-31T03:34:26;0.50;;;0.50;;
4821;SDS011;2425;47.794;13.068;2023-07-31T03:36:52;0.40;;;0.40;;
4821;SDS011;2425;47.794;13.068;2023-07-31T03:39:19;0.50;;;0.50;;
4821;SDS011;2425;47.794;13.068;2023-07-31T03:41:46;0.40;;;0.40;;
4821;SDS011;2425;47.794;13.068;2023-07-31T03:44:14;0.50;;;0.50;;
4821;SDS011;2425;47.794;13.068;2023-07-31T03:46:40;0.40;;;0.40;;
4821;SDS011;2425;47.794;13.068;2023-07-31T03:49:07;0.57;;;0.50;;
4821;SDS011;2425;47.794;13.068;2023-07-31T03:51:34;0.60;;;0.60;;
4821;SDS011;2425;47.794;13.068;2023-07-31T03:54:00;0.57;;;0.57;;
4821;SDS011;2425;47.794;13.068;2023-07-31T03:56:27;0.70;;;0.70;;
4821;SDS011;2425;47.794;13.068;2023-07-31T03:58:54;0.60;;;0.60;;
4821;SDS011;2425;47.794;13.068;2023-07-31T04:01:22;0.87;;;0.87;;
4821;SDS011;2425;47.794;13.068;2023-07-31T04:03:48;0.50;;;0.50;;
4821;SDS011;2425;47.794;13.068;2023-07-31T04:06:15;0.60;;;0.60;;
4821;SDS011;2425;47.794;13.068;2023-07-31T04:08:43;0.50;;;0.50;;
4821;SDS011;2425;47.794;13.068;2023-07-31T04:11:09;0.80;;;0.60;;
4821;SDS011;2425;47.794;13.068;2023-07-31T04:13:36;0.50;;;0.50;;
4821;SDS011;2425;47.794;13.068;2023-07-31T04:16:03;0.60;;;0.60;;
4821;SDS011;2425;47.794;13.068;2023-07-31T04:18:31;0.50;;;0.50;;
4821;SDS011;2425;47.794;13.068;2023-07-31T04:20:58;0.50;;;0.50;;
4821;SDS011;2425;47.794;13.068;2023-07-31T04:23:26;0.70;;;0.60;;
4821;SDS011;2425;47.794;13.068;2023-07-31T04:25:53;0.50;;;0.50;;
4821;SDS011;2425;47.794;13.068;2023-07-31T04:28:19;0.50;;;0.50;;
4821;SDS011;2425;47.794;13.068;2023-07-31T04:30:46;0.50;;;0.50;;
4821;SDS011;2425;47.794;13.068;2023-07-31T04:33:13;0.50;;;0.50;;
4821;SDS011;2425;47.794;13.068;2023-07-31T04:35:41;0.50;;;0.50;;
4821;SDS011;2425;47.794;13.068;2023-07-31T04:38:08;0.60;;;0.60;;
4821;SDS011;2425;47.794;13.068;2023-07-31T04:40:34;0.50;;;0.50;;
4821;SDS011;2425;47.794;13.068;2023-07-31T04:43:01;0.90;;;0.60;;
4821;SDS011;2425;47.794;13.068;2023-07-31T04:45:28;0.50;;;0.50;;
4821;SDS011;2425;47.794;13.068;2023-07-31T04:47:54;0.70;;;0.70;;
4821;SDS011;2425;47.794;13.068;2023-07-31T04:50:21;0.60;;;0.60;;
4821;SDS011;2425;47.794;13.068;2023-07-31T04:52:49;0.50;;;0.50;;
4821;SDS011;2425;47.794;13.068;2023-07-31T04:55:16;0.50;;;0.50;;
4821;SDS011;2425;47.794;13.068;2023-07-31T04:57:43;0.60;;;0.60;;
4821;SDS011;2425;47.794;13.068;2023-07-31T05:00:09;0.67;;;0.67;;
4821;SDS011;2425;47.794;13.068;2023-07-31T05:02:37;0.60;;;0.60;;
4821;SDS011;2425;47.794;13.068;2023-07-31T05:05:04;0.40;;;0.40;;
4821;SDS011;2425;47.794;13.068;2023-07-31T05:07:30;0.50;;;0.50;;
4821;SDS011;2425;47.794;13.068;2023-07-31T05:09:58;0.40;;;0.40;;
4821;SDS011;2425;47.794;13.068;2023-07-31T05:12:25;0.70;;;0.70;;
4821;SDS011;2425;47.794;13.068;2023-07-31T05:14:52;0.50;;;0.50;;
4821;SDS011;2425;47.794;13.068;2023-07-31T05:17:19;0.50;;;0.50;;
4821;SDS011;2425;47.794;13.068;2023-07-31T05:19:45;0.50;;;0.50;;
4821;SDS011;2425;47.794;13.068;2023-07-31T05:22:12;0.40;;;0.40;;
4821;SDS011;2425;47.794;13.068;2023-07-31T05:24:38;0.50;;;0.50;;
4821;SDS011;2425;47.794;13.068;2023-07-31T05:27:07;0.60;;;0.60;;
4821;SDS011;2425;47.794;13.068;2023-07-31T05:29:34;0.40;;;0.40;;
4821;SDS011;2425;47.794;13.068;2023-07-31T05:32:01;0.40;;;0.40;;
4821;SDS011;2425;47.794;13.068;2023-07-31T05:34:28;0.40;;;0.40;;
4821;SDS011;2425;47.794;13.068;2023-07-31T05:36:55;0.50;;;0.50;;
4821;SDS011;2425;47.794;13.068;2023-07-31T05:39:21;0.40;;;0.40;;
4821;SDS011;2425;47.794;13.068;2023-07-31T05:41:48;0.43;;;0.43;;
4821;SDS011;2425;47.794;13.068;2023-07-31T05:44:16;0.40;;;0.40;;
4821;SDS011;2425;47.794;13.068;2023-07-31T05:46:43;0.40;;;0.40;;
4821;SDS011;2425;47.794;13.068;2023-07-31T05:49:09;0.40;;;0.40;;
4821;SDS011;2425;47.794;13.068;2023-07-31T05:51:36;0.57;;;0.57;;
4821;SDS011;2425;47.794;13.068;2023-07-31T05:54:03;0.60;;;0.60;;
4821;SDS011;2425;47.794;13.068;2023-07-31T05:56:30;0.30;;;0.30;;
4821;SDS011;2425;47.794;13.068;2023-07-31T05:58:58;0.50;;;0.50;;
4821;SDS011;2425;47.794;13.068;2023-07-31T06:01:32;0.30;;;0.30;;
4821;SDS011;2425;47.794;13.068;2023-07-31T06:04:12;0.40;;;0.40;;
4821;SDS011;2425;47.794;13.068;2023-07-31T06:06:49;0.60;;;0.60;;
4821;SDS011;2425;47.794;13.068;2023-07-31T06:09:22;0.40;;;0.40;;
4821;SDS011;2425;47.794;13.068;2023-07-31T06:11:51;0.50;;;0.50;;
4821;SDS011;2425;47.794;13.068;2023-07-31T06:14:17;0.50;;;0.50;;
4821;SDS011;2425;47.794;13.068;2023-07-31T06:16:46;0.50;;;0.50;;
4821;SDS011;2425;47.794;13.068;2023-07-31T06:19:12;0.50;;;0.50;;
4821;SDS011;2425;47.794;13.068;2023-07-31T06:21:39;0.50;;;0.50;;
4821;SDS011;2425;47.794;13.068;2023-07-31T06:24:07;0.43;;;0.43;;
4821;SDS011;2425;47.794;13.068;2023-07-31T06:26:34;0.50;;;0.50;;
4821;SDS011;2425;47.794;13.068;2023-07-31T06:29:01;0.60;;;0.60;;
4821;SDS011;2425;47.794;13.068;2023-07-31T06:31:28;0.40;;;0.40;;
4821;SDS011;2425;47.794;13.068;2023-07-31T06:33:56;0.40;;;0.40;;
4821;SDS011;2425;47.794;13.068;2023-07-31T06:36:22;0.30;;;0.30;;
4821;SDS011;2425;47.794;13.068;2023-07-31T06:38:49;0.50;;;0.50;;
4821;SDS011;2425;47.794;13.068;2023-07-31T06:41:16;0.33;;;0.33;;
4821;SDS011;2425;47.794;13.068;2023-07-31T06:43:42;0.50;;;0.50;;
4821;SDS011;2425;47.794;13.068;2023-07-31T06:46:09;1.07;;;0.60;;
4821;SDS011;2425;47.794;13.068;2023-07-31T06:48:36;0.33;;;0.33;;
4821;SDS011;2425;47.794;13.068;2023-07-31T06:51:04;0.40;;;0.40;;
4821;SDS011;2425;47.794;13.068;2023-07-31T06:53:31;0.63;;;0.50;;
4821;SDS011;2425;47.794;13.068;2023-07-31T06:55:57;0.60;;;0.60;;
4821;SDS011;2425;47.794;13.068;2023-07-31T06:58:24;0.73;;;0.60;;
4821;SDS011;2425;47.794;13.068;2023-07-31T07:00:51;3.83;;;1.43;;
4821;SDS011;2425;47.794;13.068;2023-07-31T07:03:18;4.30;;;1.97;;
4821;SDS011;2425;47.794;13.068;2023-07-31T07:05:45;10.10;;;2.50;;
4821;SDS011;2425;47.794;13.068;2023-07-31T07:08:13;7.07;;;2.50;;
4821;SDS011;2425;47.794;13.068;2023-07-31T07:10:41;4.10;;;2.37;;
4821;SDS011;2425;47.794;13.068;2023-07-31T07:13:08;3.67;;;2.60;;
4821;SDS011;2425;47.794;13.068;2023-07-31T07:15:34;4.67;;;2.27;;
4821;SDS011;2425;47.794;13.068;2023-07-31T07:18:01;4.80;;;2.67;;
4821;SDS011;2425;47.794;13.068;2023-07-31T07:20:31;3.73;;;2.17;;
4821;SDS011;2425;47.794;13.068;2023-07-31T07:23:09;4.47;;;2.13;;
4821;SDS011;2425;47.794;13.068;2023-07-31T07:25:49;4.13;;;1.77;;
4821;SDS011;2425;47.794;13.068;2023-07-31T07:28:16;7.53;;;2.75;;
4821;SDS011;2425;47.794;13.068;2023-07-31T07:30:43;3.90;;;2.33;;
4821;SDS011;2425;47.794;13.068;2023-07-31T07:33:09;4.97;;;2.43;;
4821;SDS011;2425;47.794;13.068;2023-07-31T07:35:37;4.60;;;2.70;;
4821;SDS011;2425;47.794;13.068;2023-07-31T07:38:04;2.57;;;2.13;;
4821;SDS011;2425;47.794;13.068;2023-07-31T07:40:32;3.77;;;2.27;;
4821;SDS011;2425;47.794;13.068;2023-07-31T07:42:59;11.00;;;2.70;;
4821;SDS011;2425;47.794;13.068;2023-07-31T07:45:26;3.73;;;2.50;;
4821;SDS011;2425;47.794;13.068;2023-07-31T07:47:52;4.33;;;2.40;;
4821;SDS011;2425;47.794;13.068;2023-07-31T07:50:19;4.17;;;2.53;;
4821;SDS011;2425;47.794;13.068;2023-07-31T07:52:46;9.43;;;3.13;;
4821;SDS011;2425;47.794;13.068;2023-07-31T07:55:13;2.43;;;2.10;;
4821;SDS011;2425;47.794;13.068;2023-07-31T07:57:41;5.03;;;2.37;;
4821;SDS011;2425;47.794;13.068;2023-07-31T08:00:09;2.87;;;1.83;;
4821;SDS011;2425;47.794;13.068;2023-07-31T08:02:36;3.57;;;1.73;;
4821;SDS011;2425;47.794;13.068;2023-07-31T08:05:03;2.63;;;2.43;;
4821;SDS011;2425;47.794;13.068;2023-07-31T08:07:31;4.47;;;2.30;;
4821;SDS011;2425;47.794;13.068;2023-07-31T08:09:57;6.50;;;2.50;;
4821;SDS011;2425;47.794;13.068;2023-07-31T08:12:24;2.47;;;2.20;;
4821;SDS011;2425;47.794;13.068;2023-07-31T08:14:52;3.67;;;2.50;;
4821;SDS011;2425;47.794;13.068;2023-07-31T08:17:19;2.40;;;2.17;;
4821;SDS011;2425;47.794;13.068;2023-07-31T08:19:46;2.30;;;2.10;;
4821;SDS011;2425;47.794;13.068;2023-07-31T08:22:12;5.30;;;2.70;;
4821;SDS011;2425;47.794;13.068;2023-07-31T08:24:39;2.57;;;1.50;;
4821;SDS011;2425;47.794;13.068;2023-07-31T08:27:06;3.03;;;2.00;;
4821;SDS011;2425;47.794;13.068;2023-07-31T08:29:33;2.50;;;2.07;;
4821;SDS011;2425;47.794;13.068;2023-07-31T08:32:01;2.43;;;2.20;;
4821;SDS011;2425;47.794;13.068;2023-07-31T08:34:27;3.90;;;2.27;;
4821;SDS011;2425;47.794;13.068;2023-07-31T08:36:54;2.27;;;2.10;;
4821;SDS011;2425;47.794;13.068;2023-07-31T08:39:21;4.80;;;2.17;;
4821;SDS011;2425;47.794;13.068;2023-07-31T08:41:48;3.90;;;1.93;;
4821;SDS011;2425;47.794;13.068;2023-07-31T08:44:14;2.13;;;1.93;;
4821;SDS011;2425;47.794;13.068;2023-07-31T08:46:41;2.13;;;1.90;;
4821;SDS011;2425;47.794;13.068;2023-07-31T08:49:10;4.80;;;2.07;;
4821;SDS011;2425;47.794;13.068;2023-07-31T08:51:36;2.10;;;1.90;;
4821;SDS011;2425;47.794;13.068;2023-07-31T08:54:03;1.70;;;1.60;;
4821;SDS011;2425;47.794;13.068;2023-07-31T08:56:31;1.90;;;1.80;;
4821;SDS011;2425;47.794;13.068;2023-07-31T08:58:59;2.17;;;1.97;;
4821;SDS011;2425;47.794;13.068;2023-07-31T09:01:28;4.93;;;2.17;;
4821;SDS011;2425;47.794;13.068;2023-07-31T09:03:56;2.37;;;1.70;;
4821;SDS011;2425;47.794;13.068;2023-07-31T09:06:25;4.83;;;2.00;;
4821;SDS011;2425;47.794;13.068;2023-07-31T09:08:54;2.00;;;1.60;;
4821;SDS011;2425;47.794;13.068;2023-07-31T09:11:21;2.00;;;1.80;;
4821;SDS011;2425;47.794;13.068;2023-07-31T09:13:49;1.60;;;1.50;;
4821;SDS011;2425;47.794;13.068;2023-07-31T09:16:16;1.47;;;1.37;;
4821;SDS011;2425;47.794;13.068;2023-07-31T09:18:55;2.00;;;1.90;;
4821;SDS011;2425;47.794;13.068;2023-07-31T09:21:23;2.60;;;2.00;;
4821;SDS011;2425;47.794;13.068;2023-07-31T09:23:53;1.80;;;1.70;;
4821;SDS011;2425;47.794;13.068;2023-07-31T09:29:05;1.67;;;1.53;;
4821;SDS011;2425;47.794;13.068;2023-07-31T09:31:33;1.73;;;1.50;;
4821;SDS011;2425;47.794;13.068;2023-07-31T09:34:05;1.90;;;1.27;;
4821;SDS011;2425;47.794;13.068;2023-07-31T09:36:33;1.70;;;1.60;;
4821;SDS011;2425;47.794;13.068;2023-07-31T09:39:07;1.70;;;1.60;;
4821;SDS011;2425;47.794;13.068;2023-07-31T09:41:36;3.63;;;1.70;;
4821;SDS011;2425;47.794;13.068;2023-07-31T09:44:03;2.57;;;1.70;;
4821;SDS011;2425;47.794;13.068;2023-07-31T09:46:30;1.77;;;1.67;;
4821;SDS011;2425;47.794;13.068;2023-07-31T09:49:03;5.73;;;1.63;;
4821;SDS011;2425;47.794;13.068;2023-07-31T09:51:32;2.17;;;1.77;;
4821;SDS011;2425;47.794;13.068;2023-07-31T09:54:03;1.80;;;1.73;;
4821;SDS011;2425;47.794;13.068;2023-07-31T09:56:31;3.50;;;1.60;;
4821;SDS011;2425;47.794;13.068;2023-07-31T09:58:59;1.73;;;1.63;;
4821;SDS011;2425;47.794;13.068;2023-07-31T10:01:25;4.77;;;1.90;;
4821;SDS011;2425;47.794;13.068;2023-07-31T10:03:52;1.80;;;1.70;;
4821;SDS011;2425;47.794;13.068;2023-07-31T10:06:19;2.23;;;1.83;;
4821;SDS011;2425;47.794;13.068;2023-07-31T10:08:47;2.40;;;1.97;;
4821;SDS011;2425;47.794;13.068;2023-07-31T10:11:14;1.90;;;1.80;;
4821;SDS011;2425;47.794;13.068;2023-07-31T10:13:42;3.83;;;1.93;;
4821;SDS011;2425;47.794;13.068;2023-07-31T10:16:08;3.70;;;1.90;;
4821;SDS011;2425;47.794;13.068;2023-07-31T10:18:35;2.00;;;1.90;;
4821;SDS011;2425;47.794;13.068;2023-07-31T10:21:02;2.53;;;2.33;;
4821;SDS011;2425;47.794;13.068;2023-07-31T10:23:29;4.53;;;2.20;;
4821;SDS011;2425;47.794;13.068;2023-07-31T10:25:57;4.80;;;2.60;;
4821;SDS011;2425;47.794;13.068;2023-07-31T10:28:25;2.27;;;1.90;;
4821;SDS011;2425;47.794;13.068;2023-07-31T10:30:52;3.70;;;1.97;;
4821;SDS011;2425;47.794;13.068;2023-07-31T10:33:19;2.37;;;2.20;;
4821;SDS011;2425;47.794;13.068;2023-07-31T10:35:47;3.67;;;2.00;;
4821;SDS011;2425;47.794;13.068;2023-07-31T10:38:13;4.37;;;2.40;;
4821;SDS011;2425;47.794;13.068;2023-07-31T10:40:40;2.80;;;1.80;;
4821;SDS011;2425;47.794;13.068;2023-07-31T10:43:08;2.80;;;2.30;;
4821;SDS011;2425;47.794;13.068;2023-07-31T10:45:37;7.80;;;2.50;;
4821;SDS011;2425;47.794;13.068;2023-07-31T10:48:04;5.33;;;1.93;;
4821;SDS011;2425;47.794;13.068;2023-07-31T10:50:32;2.90;;;2.00;;
4821;SDS011;2425;47.794;13.068;2023-07-31T10:52:59;2.50;;;2.03;;
4821;SDS011;2425;47.794;13.068;2023-07-31T10:55:30;2.90;;;1.87;;
4821;SDS011;2425;47.794;13.068;2023-07-31T10:58:00;2.80;;;2.27;;
4821;SDS011;2425;47.794;13.068;2023-07-31T11:00:33;4.37;;;3.93;;
4821;SDS011;2425;47.794;13.068;2023-07-31T11:03:01;4.50;;;4.10;;
4821;SDS011;2425;47.794;13.068;2023-07-31T11:08:28;2.93;;;2.60;;
4821;SDS011;2425;47.794;13.068;2023-07-31T11:11:04;8.50;;;3.47;;
4821;SDS011;2425;47.794;13.068;2023-07-31T11:13:32;4.53;;;3.00;;
4821;SDS011;2425;47.794;13.068;2023-07-31T11:16:01;3.20;;;2.90;;
4821;SDS011;2425;47.794;13.068;2023-07-31T11:18:28;2.20;;;2.10;;
4821;SDS011;2425;47.794;13.068;2023-07-31T11:20:54;3.63;;;2.20;;
4821;SDS011;2425;47.794;13.068;2023-07-31T11:23:21;3.43;;;2.13;;
4821;SDS011;2425;47.794;13.068;2023-07-31T11:25:49;2.73;;;2.53;;
4821;SDS011;2425;47.794;13.068;2023-07-31T11:28:16;4.10;;;2.50;;
4821;SDS011;2425;47.794;13.068;2023-07-31T11:30:44;2.37;;;2.27;;
4821;SDS011;2425;47.794;13.068;2023-07-31T11:33:13;3.10;;;2.00;;
4821;SDS011;2425;47.794;13.068;2023-07-31T11:35:43;3.10;;;2.40;;
4821;SDS011;2425;47.794;13.068;2023-07-31T11:38:11;2.60;;;2.40;;
4821;SDS011;2425;47.794;13.068;2023-07-31T11:40:41;1.97;;;1.87;;
4821;SDS011;2425;47.794;13.068;2023-07-31T11:43:08;6.23;;;3.17;;
4821;SDS011;2425;47.794;13.068;2023-07-31T11:45:36;3.57;;;2.53;;
4821;SDS011;2425;47.794;13.068;2023-07-31T11:48:04;2.43;;;2.23;;
4821;SDS011;2425;47.794;13.068;2023-07-31T11:50:32;5.30;;;2.27;;
4821;SDS011;2425;47.794;13.068;2023-07-31T11:53:00;2.73;;;2.17;;
4821;SDS011;2425;47.794;13.068;2023-07-31T11:55:30;3.50;;;2.13;;
4821;SDS011;2425;47.794;13.068;2023-07-31T11:57:57;2.30;;;2.03;;
4821;SDS011;2425;47.794;13.068;2023-07-31T12:00:24;2.10;;;2.00;;
4821;SDS011;2425;47.794;13.068;2023-07-31T12:02:51;4.10;;;3.07;;
4821;SDS011;2425;47.794;13.068;2023-07-31T12:05:19;4.93;;;3.77;;
4821;SDS011;2425;47.794;13.068;2023-07-31T12:07:48;3.17;;;2.87;;
4821;SDS011;2425;47.794;13.068;2023-07-31T12:10:26;8.23;;;3.10;;
4821;SDS011;2425;47.794;13.068;2023-07-31T12:12:58;4.67;;;2.40;;
4821;SDS011;2425;47.794;13.068;2023-07-31T12:15:29;3.13;;;2.00;;
4821;SDS011;2425;47.794;13.068;2023-07-31T12:17:59;2.50;;;2.30;;
4821;SDS011;2425;47.794;13.068;2023-07-31T12:20:26;3.13;;;2.63;;
4821;SDS011;2425;47.794;13.068;2023-07-31T12:22:56;3.00;;;2.50;;
4821;SDS011;2425;47.794;13.068;2023-07-31T12:25:28;3.40;;;2.43;;
4821;SDS011;2425;47.794;13.068;2023-07-31T12:27:55;3.07;;;2.10;;
4821;SDS011;2425;47.794;13.068;2023-07-31T12:30:28;6.20;;;2.03;;
4821;SDS011;2425;47.794;13.068;2023-07-31T12:32:56;2.20;;;1.83;;
4821;SDS011;2425;47.794;13.068;2023-07-31T12:35:22;2.53;;;2.33;;
4821;SDS011;2425;47.794;13.068;2023-07-31T12:37:49;2.40;;;2.20;;
4821;SDS011;2425;47.794;13.068;2023-07-31T12:40:17;2.73;;;2.17;;
4821;SDS011;2425;47.794;13.068;2023-07-31T12:42:44;3.23;;;1.90;;
4821;SDS011;2425;47.794;13.068;2023-07-31T12:45:10;7.40;;;1.90;;
4821;SDS011;2425;47.794;13.068;2023-07-31T12:47:37;193.57;;;27.00;;
4821;SDS011;2425;47.794;13.068;2023-07-31T12:50:04;166.10;;;26.40;;
4821;SDS011;2425;47.794;13.068;2023-07-31T12:52:32;109.10;;;22.10;;
4821;SDS011;2425;47.794;13.068;2023-07-31T12:54:59;64.43;;;12.77;;
4821;SDS011;2425;47.794;13.068;2023-07-31T12:57:27;74.50;;;14.03;;
4821;SDS011;2425;47.794;13.068;2023-07-31T12:59:53;37.20;;;8.90;;
4821;SDS011;2425;47.794;13.068;2023-07-31T13:02:20;30.70;;;8.03;;
4821;SDS011;2425;47.794;13.068;2023-07-31T13:04:47;23.97;;;6.40;;
4821;SDS011;2425;47.794;13.068;2023-07-31T13:07:15;22.00;;;5.30;;
4821;SDS011;2425;47.794;13.068;2023-07-31T13:09:41;19.97;;;4.97;;
4821;SDS011;2425;47.794;13.068;2023-07-31T13:12:08;12.40;;;3.83;;
4821;SDS011;2425;47.794;13.068;2023-07-31T13:14:37;7.10;;;3.40;;
4821;SDS011;2425;47.794;13.068;2023-07-31T13:17:04;10.33;;;3.27;;
4821;SDS011;2425;47.794;13.068;2023-07-31T13:19:31;8.67;;;3.60;;
4821;SDS011;2425;47.794;13.068;2023-07-31T13:21:58;6.57;;;2.70;;
4821;SDS011;2425;47.794;13.068;2023-07-31T13:24:24;10.03;;;2.47;;
4821;SDS011;2425;47.794;13.068;2023-07-31T13:26:55;3.90;;;2.90;;
4821;SDS011;2425;47.794;13.068;2023-07-31T13:29:21;4.90;;;3.07;;
4821;SDS011;2425;47.794;13.068;2023-07-31T13:31:51;5.97;;;2.30;;
4821;SDS011;2425;47.794;13.068;2023-07-31T13:34:18;6.27;;;2.47;;
4821;SDS011;2425;47.794;13.068;2023-07-31T13:36:45;3.43;;;2.50;;
4821;SDS011;2425;47.794;13.068;2023-07-31T13:39:12;4.27;;;2.20;;
4821;SDS011;2425;47.794;13.068;2023-07-31T13:41:39;2.57;;;2.20;;
4821;SDS011;2425;47.794;13.068;2023-07-31T13:44:05;2.70;;;2.07;;
4821;SDS011;2425;47.794;13.068;2023-07-31T13:46:32;3.77;;;2.60;;
4821;SDS011;2425;47.794;13.068;2023-07-31T13:49:00;2.53;;;2.33;;
4821;SDS011;2425;47.794;13.068;2023-07-31T13:51:27;3.47;;;2.17;;
4821;SDS011;2425;47.794;13.068;2023-07-31T13:53:53;6.07;;;2.57;;
4821;SDS011;2425;47.794;13.068;2023-07-31T13:56:20;8.80;;;2.50;;
4821;SDS011;2425;47.794;13.068;2023-07-31T13:58:47;1.83;;;1.70;;
4821;SDS011;2425;47.794;13.068;2023-07-31T14:01:14;8.30;;;2.10;;
4821;SDS011;2425;47.794;13.068;2023-07-31T14:03:40;7.90;;;2.20;;
4821;SDS011;2425;47.794;13.068;2023-07-31T14:06:08;5.03;;;2.40;;
4821;SDS011;2425;47.794;13.068;2023-07-31T14:08:35;3.03;;;2.80;;
4821;SDS011;2425;47.794;13.068;2023-07-31T14:11:02;5.90;;;2.87;;
4821;SDS011;2425;47.794;13.068;2023-07-31T14:13:29;2.73;;;2.50;;
4821;SDS011;2425;47.794;13.068;2023-07-31T14:15:55;12.23;;;2.80;;
4821;SDS011;2425;47.794;13.068;2023-07-31T14:18:22;7.67;;;2.60;;
4821;SDS011;2425;47.794;13.068;2023-07-31T14:20:49;4.10;;;2.33;;
4821;SDS011;2425;47.794;13.068;2023-07-31T14:23:17;2.23;;;2.13;;
4821;SDS011;2425;47.794;13.068;2023-07-31T14:25:44;13.73;;;2.60;;
4821;SDS011;2425;47.794;13.068;2023-07-31T14:28:11;7.03;;;2.27;;
4821;SDS011;2425;47.794;13.068;2023-07-31T14:30:38;3.70;;;2.30;;
4821;SDS011;2425;47.794;13.068;2023-07-31T14:33:05;6.50;;;2.43;;
4821;SDS011;2425;47.794;13.068;2023-07-31T14:35:31;2.37;;;2.27;;
4821;SDS011;2425;47.794;13.068;2023-07-31T14:37:58;3.03;;;2.40;;
4821;SDS011;2425;47.794;13.068;2023-07-31T14:40:26;2.40;;;2.20;;
4821;SDS011;2425;47.794;13.068;2023-07-31T14:42:53;2.33;;;2.13;;
4821;SDS011;2425;47.794;13.068;2023-07-31T14:45:19;4.10;;;2.40;;
4821;SDS011;2425;47.794;13.068;2023-07-31T14:47:46;6.90;;;2.20;;
4821;SDS011;2425;47.794;13.068;2023-07-31T14:50:13;3.57;;;1.90;;
4821;SDS011;2425;47.794;13.068;2023-07-31T14:52:40;3.27;;;2.87;;
4821;SDS011;2425;47.794;13.068;2023-07-31T14:55:07;7.20;;;2.77;;
4821;SDS011;2425;47.794;13.068;2023-07-31T14:57:35;3.27;;;2.90;;
4821;SDS011;2425;47.794;13.068;2023-07-31T15:00:02;3.80;;;3.50;;
4821;SDS011;2425;47.794;13.068;2023-07-31T15:02:32;5.17;;;3.20;;
4821;SDS011;2425;47.794;13.068;2023-07-31T15:04:59;10.93;;;3.23;;
4821;SDS011;2425;47.794;13.068;2023-07-31T15:07:26;2.77;;;2.57;;
4821;SDS011;2425;47.794;13.068;2023-07-31T15:09:53;3.13;;;2.50;;